Wetterdaten: Woche 14.11.16 - 20.11.16 (KW46)
Datum Zeit Temp. Aussen Temp. o. S. +5cm Feuchte Auss BlattFeu 1 Luftdruck Regen Sonnenschein Regendauer Solar Windben Empfang
14.11.2016 00:00 1,6 C 1,4 C -0,5 C 88 % 0 lf 1030,0 hPa 0,0 l/m 0,00 h 0,00 h 4 W/m 10,8 km/h (2 Bft) 96,19 %
14.11.2016 01:00 0,9 C 0,6 C -1,2 C 88 % 0 lf 1030,4 hPa 0,0 l/m 0,00 h 0,00 h 5 W/m 10,9 km/h (2 Bft) 95,80 %
14.11.2016 02:00 0,3 C 0,2 C -1,6 C 89 % 0 lf 1030,5 hPa 0,0 l/m 0,00 h 0,00 h 5 W/m 10,9 km/h (2 Bft) 94,31 %
14.11.2016 03:00 -0,1 C 0,0 C -1,7 C 90 % 0 lf 1030,7 hPa 0,0 l/m 0,00 h 0,00 h 5 W/m 11,6 km/h (2 Bft) 97,58 %
14.11.2016 04:00 -0,2 C -0,0 C -1,7 C 89 % 0 lf 1030,7 hPa 0,0 l/m 0,00 h 0,00 h 0 W/m 18,0 km/h (3 Bft) 93,89 %
14.11.2016 05:00 -0,4 C -0,3 C -2,0 C 89 % 0 lf 1031,0 hPa 0,0 l/m 0,00 h 0,00 h 5 W/m 15,1 km/h (3 Bft) 98,22 %
14.11.2016 06:00 -0,7 C -0,7 C -2,2 C 89 % 0 lf 1031,1 hPa 0,0 l/m 0,00 h 0,00 h 3 W/m 13,0 km/h (3 Bft) 93,91 %
14.11.2016 07:00 -0,9 C -0,8 C -2,3 C 90 % 0 lf 1031,7 hPa 0,0 l/m 0,00 h 0,00 h 7 W/m 14,3 km/h (3 Bft) 95,28 %
14.11.2016 08:00 -0,7 C 0,0 C -1,6 C 90 % 0 lf 1032,4 hPa 0,0 l/m 0,93 h 0,00 h 55 W/m 13,7 km/h (3 Bft) 97,19 %
14.11.2016 09:00 0,1 C 1,5 C -0,0 C 90 % 0 lf 1032,9 hPa 0,0 l/m 0,87 h 0,00 h 125 W/m 17,7 km/h (3 Bft) 95,78 %
14.11.2016 10:00 1,1 C 2,3 C 1,5 C 87 % 0 lf 1033,0 hPa 0,0 l/m 0,20 h 0,00 h 136 W/m 17,5 km/h (3 Bft) 93,87 %
14.11.2016 11:00 2,0 C 3,2 C 2,7 C 85 % 0 lf 1032,7 hPa 0,0 l/m 0,17 h 0,00 h 139 W/m 15,1 km/h (3 Bft) 97,47 %
14.11.2016 12:00 2,7 C 3,8 C 3,3 C 84 % 0 lf 1031,9 hPa 0,0 l/m 0,00 h 0,00 h 123 W/m 15,4 km/h (3 Bft) 94,43 %
14.11.2016 13:00 3,6 C 5,6 C 3,7 C 82 % 0 lf 1031,2 hPa 0,0 l/m 0,57 h 0,00 h 184 W/m 16,7 km/h (3 Bft) 97,18 %
14.11.2016 14:00 4,6 C 6,1 C 4,4 C 81 % 0 lf 1030,7 hPa 0,0 l/m 0,63 h 0,00 h 135 W/m 13,7 km/h (3 Bft) 95,59 %
14.11.2016 15:00 4,7 C 5,3 C 4,1 C 83 % 0 lf 1030,5 hPa 0,0 l/m 0,17 h 0,00 h 66 W/m 12,1 km/h (2 Bft) 94,55 %
14.11.2016 16:00 4,6 C 4,8 C 3,4 C 83 % 0 lf 1030,3 hPa 0,0 l/m 0,00 h 0,00 h 15 W/m 11,9 km/h (2 Bft) 96,69 %
14.11.2016 17:00 4,1 C 3,3 C 2,1 C 85 % 0 lf 1030,0 hPa 0,0 l/m 0,00 h 0,97 h 0 W/m 10,0 km/h (2 Bft) 96,78 %
14.11.2016 18:00 3,6 C 3,2 C 1,7 C 87 % 0 lf 1029,9 hPa 0,2 l/m 0,00 h 0,63 h 0 W/m 9,7 km/h (2 Bft) 93,33 %
14.11.2016 19:00 3,4 C 2,8 C 1,7 C 89 % 1 lf 1029,9 hPa 0,0 l/m 0,00 h 0,60 h 0 W/m 9,8 km/h (2 Bft) 98,01 %
14.11.2016 20:00 3,3 C 2,8 C 1,7 C 91 % 0 lf 1029,6 hPa 0,0 l/m 0,00 h 0,73 h 0 W/m 11,5 km/h (2 Bft) 95,97 %
14.11.2016 21:00 3,3 C 3,2 C 1,9 C 93 % 1 lf 1029,2 hPa 0,2 l/m 0,00 h 0,67 h 0 W/m 14,2 km/h (3 Bft) 96,68 %
14.11.2016 22:00 3,7 C 3,8 C 2,2 C 94 % 1 lf 1028,6 hPa 0,0 l/m 0,00 h 0,67 h 0 W/m 18,1 km/h (3 Bft) 94,49 %
14.11.2016 23:00 3,9 C 3,9 C 2,7 C 95 % 5 lf 1028,0 hPa 0,0 l/m 0,00 h 0,70 h 0 W/m 16,0 km/h (3 Bft) 96,09 %
15.11.2016 00:00 3,8 C 3,9 C 2,8 C 96 % 8 lf 1027,3 hPa 0,2 l/m 0,00 h 0,38 h 0 W/m 18,9 km/h (3 Bft) 97,17 %
15.11.2016 01:00 4,1 C 3,9 C 2,8 C 96 % 3 lf 1026,5 hPa 0,0 l/m 0,00 h 0,23 h 0 W/m 17,0 km/h (3 Bft) 95,51 %
15.11.2016 02:00 4,2 C 3,9 C 2,8 C 96 % 8 lf 1026,1 hPa 0,0 l/m 0,00 h 0,07 h 0 W/m 13,1 km/h (3 Bft) 96,77 %
15.11.2016 03:00 4,1 C 3,9 C 2,8 C 97 % 14 lf 1025,8 hPa 0,4 l/m 0,00 h 0,67 h 0 W/m 9,9 km/h (2 Bft) 94,78 %
15.11.2016 04:00 4,0 C 4,0 C 2,9 C 97 % 15 lf 1025,4 hPa 0,4 l/m 0,00 h 0,63 h 0 W/m 10,5 km/h (2 Bft) 96,22 %
15.11.2016 05:00 4,5 C 4,8 C 3,5 C 98 % 15 lf 1025,0 hPa 0,4 l/m 0,00 h 0,83 h 0 W/m 9,2 km/h (2 Bft) 97,76 %
15.11.2016 06:00 5,5 C 5,8 C 4,6 C 98 % 15 lf 1024,6 hPa 0,6 l/m 0,00 h 0,70 h 0 W/m 13,9 km/h (3 Bft) 94,85 %
15.11.2016 07:00 6,3 C 6,4 C 5,0 C 98 % 15 lf 1024,4 hPa 1,0 l/m 0,00 h 0,90 h 0 W/m 15,5 km/h (3 Bft) 94,63 %
15.11.2016 08:00 6,7 C 6,7 C 5,6 C 99 % 15 lf 1024,4 hPa 0,8 l/m 0,00 h 0,63 h 6 W/m 14,4 km/h (3 Bft) 98,01 %
15.11.2016 09:00 7,0 C 7,2 C 5,9 C 99 % 15 lf 1024,5 hPa 0,0 l/m 0,00 h 0,00 h 21 W/m 16,9 km/h (3 Bft) 95,16 %
15.11.2016 10:00 7,4 C 7,5 C 6,4 C 99 % 15 lf 1024,7 hPa 0,0 l/m 0,00 h 0,07 h 31 W/m 14,4 km/h (3 Bft) 95,76 %
15.11.2016 11:00 7,7 C 7,8 C 6,7 C 99 % 15 lf 1024,6 hPa 0,0 l/m 0,00 h 0,00 h 29 W/m 17,1 km/h (3 Bft) 96,72 %
15.11.2016 12:00 8,1 C 8,3 C 7,1 C 99 % 15 lf 1024,0 hPa 0,2 l/m 0,00 h 0,03 h 39 W/m 20,3 km/h (4 Bft) 94,36 %
15.11.2016 13:00 8,5 C 8,8 C 7,7 C 99 % 15 lf 1023,3 hPa 0,0 l/m 0,00 h 0,00 h 59 W/m 20,2 km/h (4 Bft) 98,89 %
15.11.2016 14:00 8,7 C 8,9 C 7,8 C 99 % 15 lf 1023,2 hPa 0,0 l/m 0,00 h 0,00 h 30 W/m 23,8 km/h (4 Bft) 95,80 %
15.11.2016 15:00 9,0 C 9,1 C 7,8 C 99 % 15 lf 1023,1 hPa 0,0 l/m 0,00 h 0,00 h 27 W/m 20,5 km/h (4 Bft) 93,52 %
15.11.2016 16:00 9,2 C 9,4 C 7,8 C 99 % 15 lf 1023,1 hPa 0,0 l/m 0,00 h 0,00 h 6 W/m 17,8 km/h (3 Bft) 97,10 %
15.11.2016 17:00 9,3 C 9,4 C 8,0 C 99 % 15 lf 1023,0 hPa 0,2 l/m 0,00 h 0,30 h 0 W/m 18,7 km/h (3 Bft) 97,86 %
15.11.2016 18:00 9,6 C 9,4 C 8,3 C 100 % 15 lf 1022,8 hPa 0,0 l/m 0,00 h 0,17 h 0 W/m 19,6 km/h (3 Bft) 92,89 %
15.11.2016 19:00 9,8 C 10,0 C 8,3 C 99 % 15 lf 1022,7 hPa 0,0 l/m 0,00 h 0,03 h 0 W/m 19,6 km/h (3 Bft) 97,79 %
15.11.2016 20:00 10,0 C 10,0 C 8,9 C 100 % 15 lf 1022,6 hPa 0,2 l/m 0,00 h 0,27 h 0 W/m 18,3 km/h (3 Bft) 96,30 %
15.11.2016 21:00 10,1 C 10,0 C 8,9 C 100 % 15 lf 1022,3 hPa 0,2 l/m 0,00 h 0,23 h 0 W/m 16,4 km/h (3 Bft) 95,59 %
15.11.2016 22:00 10,3 C 10,5 C 8,9 C 100 % 15 lf 1021,9 hPa 0,0 l/m 0,00 h 0,23 h 0 W/m 16,8 km/h (3 Bft) 95,59 %
15.11.2016 23:00 10,4 C 10,6 C 9,0 C 100 % 15 lf 1021,7 hPa 0,2 l/m 0,00 h 0,50 h 0 W/m 13,3 km/h (3 Bft) 96,37 %
16.11.2016 00:00 10,6 C 10,6 C 9,4 C 100 % 15 lf 1021,4 hPa 0,4 l/m 0,00 h 0,73 h 0 W/m 13,5 km/h (3 Bft) 95,36 %
16.11.2016 01:00 10,7 C 10,6 C 9,4 C 100 % 15 lf 1020,7 hPa 0,2 l/m 0,00 h 0,10 h 0 W/m 13,6 km/h (3 Bft) 98,28 %
16.11.2016 02:00 10,8 C 10,7 C 9,4 C 100 % 15 lf 1020,2 hPa 0,0 l/m 0,00 h 0,37 h 0 W/m 12,6 km/h (3 Bft) 93,45 %
16.11.2016 03:00 10,9 C 11,1 C 9,4 C 100 % 15 lf 1019,5 hPa 0,2 l/m 0,00 h 0,20 h 0 W/m 12,8 km/h (3 Bft) 95,37 %
16.11.2016 04:00 11,0 C 11,1 C 9,4 C 100 % 15 lf 1018,4 hPa 0,6 l/m 0,00 h 0,47 h 0 W/m 14,5 km/h (3 Bft) 98,40 %
16.11.2016 05:00 11,2 C 11,2 C 10,0 C 100 % 15 lf 1017,4 hPa 1,2 l/m 0,00 h 0,77 h 0 W/m 14,5 km/h (3 Bft) 95,16 %
16.11.2016 06:00 11,5 C 11,7 C 10,0 C 100 % 15 lf 1016,4 hPa 1,0 l/m 0,00 h 0,67 h 0 W/m 18,4 km/h (3 Bft) 95,18 %
16.11.2016 07:00 11,6 C 11,7 C 10,1 C 100 % 15 lf 1015,9 hPa 1,6 l/m 0,00 h 0,90 h 0 W/m 24,1 km/h (4 Bft) 97,22 %
16.11.2016 08:00 11,8 C 11,7 C 10,6 C 100 % 15 lf 1015,4 hPa 1,8 l/m 0,00 h 1,00 h 7 W/m 29,2 km/h (5 Bft) 95,59 %
16.11.2016 09:00 12,0 C 12,1 C 10,6 C 100 % 15 lf 1015,1 hPa 1,8 l/m 0,00 h 1,00 h 19 W/m 29,2 km/h (5 Bft) 95,72 %
16.11.2016 10:00 12,3 C 12,2 C 11,1 C 100 % 15 lf 1014,9 hPa 0,8 l/m 0,00 h 1,00 h 40 W/m 27,7 km/h (4 Bft) 96,65 %
16.11.2016 11:00 12,5 C 12,8 C 11,5 C 100 % 15 lf 1014,4 hPa 0,0 l/m 0,00 h 0,43 h 68 W/m 30,3 km/h (5 Bft) 95,30 %
16.11.2016 12:00 12,7 C 12,7 C 11,5 C 100 % 15 lf 1014,0 hPa 0,0 l/m 0,00 h 0,00 h 41 W/m 29,0 km/h (5 Bft) 97,98 %
16.11.2016 13:00 12,5 C 12,4 C 11,2 C 100 % 15 lf 1013,4 hPa 0,0 l/m 0,00 h 0,13 h 53 W/m 26,3 km/h (4 Bft) 95,37 %
16.11.2016 14:00 12,6 C 12,6 C 11,4 C 99 % 15 lf 1013,2 hPa 0,2 l/m 0,13 h 0,57 h 76 W/m 24,2 km/h (4 Bft) 95,02 %
16.11.2016 15:00 12,5 C 13,0 C 11,4 C 99 % 12 lf 1013,0 hPa 0,0 l/m 0,23 h 0,00 h 60 W/m 24,0 km/h (4 Bft) 96,80 %
16.11.2016 16:00 12,2 C 12,4 C 10,4 C 97 % 0 lf 1012,8 hPa 0,0 l/m 0,10 h 0,00 h 16 W/m 20,3 km/h (4 Bft) 97,43 %
16.11.2016 17:00 11,8 C 11,7 C 9,9 C 97 % 0 lf 1012,3 hPa 0,0 l/m 0,00 h 0,00 h 0 W/m 18,7 km/h (3 Bft) 93,74 %
16.11.2016 18:00 11,7 C 11,7 C 9,9 C 96 % 0 lf 1012,2 hPa 0,0 l/m 0,00 h 0,00 h 0 W/m 21,9 km/h (4 Bft) 97,35 %
16.11.2016 19:00 11,6 C 11,7 C 10,0 C 96 % 0 lf 1012,2 hPa 0,0 l/m 0,00 h 0,03 h 0 W/m 23,6 km/h (4 Bft) 95,89 %
16.11.2016 20:00 11,5 C 11,7 C 9,8 C 94 % 0 lf 1012,1 hPa 0,0 l/m 0,00 h 0,00 h 0 W/m 24,3 km/h (4 Bft) 96,73 %
16.11.2016 21:00 11,4 C 11,7 C 9,6 C 93 % 0 lf 1011,6 hPa 0,0 l/m 0,00 h 0,00 h 0 W/m 24,5 km/h (4 Bft) 95,16 %
16.11.2016 22:00 11,4 C 11,7 C 10,0 C 93 % 0 lf 1011,1 hPa 0,0 l/m 0,00 h 0,00 h 0 W/m 27,8 km/h (4 Bft) 95,80 %
16.11.2016 23:00 11,3 C 11,6 C 10,0 C 92 % 0 lf 1010,6 hPa 0,0 l/m 0,00 h 0,00 h 0 W/m 26,1 km/h (4 Bft) 96,44 %
17.11.2016 00:00 11,2 C 11,1 C 9,7 C 92 % 0 lf 1010,2 hPa 0,0 l/m 0,00 h 0,03 h 0 W/m 25,4 km/h (4 Bft) 97,71 %
17.11.2016 01:00 11,0 C 11,1 C 9,4 C 92 % 0 lf 1009,5 hPa 0,0 l/m 0,00 h 0,07 h 0 W/m 25,2 km/h (4 Bft) 95,10 %
17.11.2016 02:00 10,7 C 10,7 C 9,2 C 91 % 0 lf 1008,6 hPa 0,0 l/m 0,00 h 0,03 h 0 W/m 23,3 km/h (4 Bft) 95,58 %
17.11.2016 03:00 10,7 C 10,6 C 9,1 C 92 % 0 lf 1007,7 hPa 0,0 l/m 0,00 h 0,00 h 0 W/m 23,5 km/h (4 Bft) 96,79 %
17.11.2016 04:00 10,7 C 10,3 C 8,9 C 91 % 6 lf 1006,8 hPa 0,2 l/m 0,00 h 0,47 h 0 W/m 20,5 km/h (4 Bft) 96,74 %
17.11.2016 05:00 10,4 C 9,7 C 8,5 C 94 % 15 lf 1006,4 hPa 0,6 l/m 0,00 h 0,77 h 0 W/m 26,4 km/h (4 Bft) 94,10 %
17.11.2016 06:00 9,4 C 8,7 C 7,4 C 95 % 15 lf 1006,4 hPa 0,0 l/m 0,00 h 0,07 h 0 W/m 20,7 km/h (4 Bft) 95,55 %
17.11.2016 07:00 9,3 C 9,2 C 7,6 C 96 % 14 lf 1006,3 hPa 0,0 l/m 0,00 h 0,00 h 4 W/m 21,3 km/h (4 Bft) 98,01 %
17.11.2016 08:00 9,5 C 9,4 C 7,8 C 96 % 5 lf 1006,2 hPa 0,0 l/m 0,00 h 0,30 h 18 W/m 18,8 km/h (3 Bft) 95,59 %
17.11.2016 09:00 9,5 C 9,5 C 7,8 C 94 % 5 lf 1006,1 hPa 0,2 l/m 0,00 h 0,43 h 34 W/m 20,6 km/h (4 Bft) 94,87 %
17.11.2016 10:00 9,5 C 9,1 C 7,9 C 94 % 15 lf 1006,1 hPa 0,4 l/m 0,03 h 0,83 h 62 W/m 22,0 km/h (4 Bft) 96,58 %
17.11.2016 11:00 9,7 C 10,9 C 8,8 C 95 % 12 lf 1005,5 hPa 0,2 l/m 0,50 h 0,00 h 196 W/m 18,8 km/h (3 Bft) 96,23 %
17.11.2016 12:00 10,5 C 12,7 C 9,0 C 91 % 0 lf 1004,5 hPa 0,0 l/m 0,97 h 0,00 h 403 W/m 23,9 km/h (4 Bft) 95,18 %
17.11.2016 13:00 11,2 C 13,8 C 9,2 C 84 % 0 lf 1003,9 hPa 0,0 l/m 0,87 h 0,00 h 214 W/m 25,9 km/h (4 Bft) 97,51 %
17.11.2016 14:00 11,4 C 11,7 C 9,4 C 85 % 0 lf 1003,0 hPa 0,0 l/m 0,00 h 0,03 h 48 W/m 27,3 km/h (4 Bft) 95,01 %
17.11.2016 15:00 11,4 C 11,8 C 10,0 C 85 % 0 lf 1002,4 hPa 0,0 l/m 0,10 h 0,00 h 50 W/m 26,7 km/h (4 Bft) 96,51 %
17.11.2016 16:00 11,4 C 11,5 C 9,8 C 84 % 0 lf 1001,6 hPa 0,0 l/m 0,47 h 0,00 h 19 W/m 22,1 km/h (4 Bft) 96,30 %
17.11.2016 17:00 11,3 C 11,5 C 9,6 C 86 % 0 lf 1000,5 hPa 0,0 l/m 0,00 h 0,00 h 0 W/m 33,2 km/h (5 Bft) 94,88 %
17.11.2016 18:00 11,3 C 11,2 C 9,5 C 87 % 0 lf 999,7 hPa 0,0 l/m 0,00 h 0,30 h 0 W/m 35,4 km/h (5 Bft) 96,79 %
17.11.2016 19:00 11,5 C 11,6 C 10,0 C 87 % 0 lf 999,1 hPa 0,0 l/m 0,00 h 0,00 h 0 W/m 36,8 km/h (5 Bft) 98,22 %
17.11.2016 20:00 11,7 C 11,8 C 10,0 C 85 % 0 lf 998,4 hPa 0,0 l/m 0,00 h 0,17 h 0 W/m 32,3 km/h (5 Bft) 92,86 %
17.11.2016 21:00 11,9 C 11,7 C 9,7 C 86 % 3 lf 997,6 hPa 0,0 l/m 0,00 h 0,83 h 5 W/m 34,3 km/h (5 Bft) 97,08 %
17.11.2016 22:00 12,3 C 11,7 C 10,0 C 84 % 4 lf 997,0 hPa 0,2 l/m 0,00 h 0,53 h 0 W/m 36,5 km/h (5 Bft) 97,43 %
17.11.2016 23:00 11,3 C 10,1 C 8,3 C 89 % 9 lf 996,3 hPa 0,0 l/m 0,00 h 0,13 h 0 W/m 30,8 km/h (5 Bft) 94,88 %
18.11.2016 00:00 11,3 C 11,1 C 9,0 C 87 % 0 lf 995,3 hPa 0,0 l/m 0,00 h 0,03 h 0 W/m 28,6 km/h (4 Bft) 96,90 %
18.11.2016 01:00 11,5 C 11,6 C 9,6 C 85 % 0 lf 994,2 hPa 0,0 l/m 0,00 h 0,00 h 0 W/m 33,6 km/h (5 Bft) 96,15 %
18.11.2016 02:00 11,8 C 12,0 C 10,1 C 84 % 0 lf 993,5 hPa 0,0 l/m 0,00 h 0,00 h 0 W/m 33,4 km/h (5 Bft) 95,23 %
18.11.2016 03:00 11,9 C 11,6 C 9,8 C 85 % 5 lf 992,6 hPa 0,2 l/m 0,00 h 0,57 h 0 W/m 34,8 km/h (5 Bft) 97,65 %
18.11.2016 04:00 10,8 C 9,1 C 7,5 C 86 % 13 lf 992,3 hPa 3,0 l/m 0,00 h 0,80 h 5 W/m 32,0 km/h (5 Bft) 97,02 %
18.11.2016 05:00 7,0 C 6,1 C 5,0 C 91 % 15 lf 994,2 hPa 0,6 l/m 0,00 h 0,47 h 5 W/m 11,0 km/h (2 Bft) 92,89 %
18.11.2016 06:00 6,3 C 5,9 C 5,0 C 94 % 15 lf 994,5 hPa 0,0 l/m 0,00 h 0,33 h 0 W/m 7,3 km/h (2 Bft) 98,66 %
18.11.2016 07:00 6,3 C 6,0 C 4,6 C 95 % 15 lf 994,7 hPa 0,0 l/m 0,00 h 0,03 h 8 W/m 11,7 km/h (2 Bft) 96,01 %
18.11.2016 08:00 6,2 C 6,3 C 4,9 C 96 % 15 lf 995,0 hPa 0,0 l/m 0,00 h 0,17 h 21 W/m 13,3 km/h (3 Bft) 96,08 %
18.11.2016 09:00 6,6 C 6,7 C 5,4 C 97 % 15 lf 995,8 hPa 1,8 l/m 0,13 h 0,70 h 40 W/m 22,8 km/h (4 Bft) 94,81 %
18.11.2016 10:00 5,8 C 5,7 C 4,6 C 96 % 15 lf 996,7 hPa 0,0 l/m 0,00 h 0,17 h 58 W/m 23,3 km/h (4 Bft) 96,94 %
18.11.2016 11:00 6,6 C 8,8 C 5,8 C 93 % 10 lf 996,9 hPa 0,0 l/m 0,67 h 0,07 h 253 W/m 23,7 km/h (4 Bft) 95,44 %
18.11.2016 12:00 7,4 C 8,2 C 6,2 C 89 % 3 lf 997,5 hPa 0,0 l/m 0,43 h 0,37 h 166 W/m 27,9 km/h (4 Bft) 95,80 %
18.11.2016 13:00 8,2 C 10,9 C 7,2 C 86 % 0 lf 997,7 hPa 0,0 l/m 0,77 h 0,00 h 226 W/m 32,9 km/h (5 Bft) 95,94 %
18.11.2016 14:00 8,4 C 10,7 C 7,1 C 82 % 0 lf 997,9 hPa 0,0 l/m 0,47 h 0,03 h 128 W/m 25,5 km/h (4 Bft) 96,94 %
18.11.2016 15:00 8,3 C 8,6 C 6,7 C 80 % 0 lf 998,3 hPa 0,0 l/m 0,27 h 0,03 h 60 W/m 25,7 km/h (4 Bft) 96,59 %
18.11.2016 16:00 7,9 C 7,5 C 5,6 C 81 % 1 lf 998,6 hPa 0,0 l/m 0,23 h 0,30 h 18 W/m 22,6 km/h (4 Bft) 95,23 %
18.11.2016 17:00 6,9 C 6,1 C 4,6 C 85 % 7 lf 999,5 hPa 0,8 l/m 0,00 h 0,43 h 5 W/m 24,8 km/h (4 Bft) 95,09 %
18.11.2016 18:00 5,9 C 5,0 C 3,5 C 90 % 15 lf 1000,7 hPa 0,4 l/m 0,00 h 0,73 h 5 W/m 39,2 km/h (6 Bft) 96,05 %
18.11.2016 19:00 5,3 C 4,4 C 3,0 C 91 % 15 lf 1001,3 hPa 0,2 l/m 0,00 h 0,27 h 5 W/m 25,7 km/h (4 Bft) 98,43 %
18.11.2016 20:00 4,9 C 4,2 C 2,9 C 92 % 15 lf 1002,1 hPa 0,0 l/m 0,00 h 0,33 h 5 W/m 13,5 km/h (3 Bft) 93,33 %
18.11.2016 21:00 4,6 C 3,9 C 2,2 C 93 % 15 lf 1002,7 hPa 0,0 l/m 0,00 h 0,07 h 5 W/m 13,0 km/h (3 Bft) 96,16 %
18.11.2016 22:00 4,8 C 4,2 C 2,5 C 93 % 10 lf 1003,1 hPa 0,0 l/m 0,00 h 0,10 h 0 W/m 15,9 km/h (3 Bft) 97,08 %
18.11.2016 23:00 5,5 C 5,0 C 2,7 C 89 % 0 lf 1003,6 hPa 0,0 l/m 0,00 h 0,10 h 5 W/m 15,8 km/h (3 Bft) 95,66 %
19.11.2016 00:00 5,4 C 4,9 C 1,9 C 88 % 0 lf 1003,8 hPa 0,0 l/m 0,00 h 0,00 h 5 W/m 11,1 km/h (2 Bft) 96,70 %
19.11.2016 01:00 4,6 C 4,4 C 1,6 C 89 % 0 lf 1003,5 hPa 0,0 l/m 0,00 h 0,00 h 5 W/m 11,5 km/h (2 Bft) 94,51 %
19.11.2016 02:00 4,4 C 4,7 C 2,1 C 91 % 0 lf 1003,5 hPa 0,0 l/m 0,00 h 0,00 h 5 W/m 13,7 km/h (3 Bft) 96,51 %
19.11.2016 03:00 4,9 C 5,2 C 2,2 C 90 % 0 lf 1003,3 hPa 0,0 l/m 0,00 h 0,00 h 5 W/m 16,3 km/h (3 Bft) 95,87 %
19.11.2016 04:00 5,2 C 5,4 C 2,3 C 89 % 0 lf 1003,0 hPa 0,0 l/m 0,00 h 0,00 h 5 W/m 18,1 km/h (3 Bft) 98,12 %
19.11.2016 05:00 5,0 C 5,0 C 2,1 C 89 % 0 lf 1003,2 hPa 0,0 l/m 0,00 h 0,00 h 5 W/m 14,8 km/h (3 Bft) 95,73 %
19.11.2016 06:00 4,7 C 4,4 C 1,7 C 89 % 0 lf 1003,4 hPa 0,0 l/m 0,00 h 0,00 h 5 W/m 12,6 km/h (3 Bft) 93,16 %
19.11.2016 07:00 4,4 C 4,0 C 1,3 C 90 % 0 lf 1003,5 hPa 0,0 l/m 0,00 h 0,00 h 5 W/m 8,9 km/h (2 Bft) 96,44 %
19.11.2016 08:00 3,5 C 3,6 C 1,3 C 91 % 0 lf 1003,9 hPa 0,0 l/m 0,30 h 0,00 h 26 W/m 7,6 km/h (2 Bft) 97,22 %
19.11.2016 09:00 4,4 C 5,6 C 2,9 C 93 % 0 lf 1004,0 hPa 0,0 l/m 0,00 h 0,00 h 29 W/m 15,4 km/h (3 Bft) 94,88 %
19.11.2016 10:00 5,8 C 6,6 C 4,2 C 89 % 0 lf 1005,0 hPa 0,0 l/m 0,00 h 0,00 h 46 W/m 14,9 km/h (3 Bft) 96,30 %
19.11.2016 11:00 6,9 C 8,6 C 6,4 C 85 % 0 lf 1005,4 hPa 0,0 l/m 0,23 h 0,00 h 127 W/m 17,6 km/h (3 Bft) 95,09 %
19.11.2016 12:00 7,1 C 7,8 C 6,5 C 83 % 0 lf 1005,5 hPa 0,0 l/m 0,00 h 0,00 h 88 W/m 20,6 km/h (4 Bft) 96,29 %
19.11.2016 13:00 7,4 C 10,6 C 6,7 C 83 % 0 lf 1005,7 hPa 0,0 l/m 0,50 h 0,00 h 184 W/m 18,0 km/h (3 Bft) 96,37 %
19.11.2016 14:00 8,4 C 11,1 C 7,3 C 77 % 0 lf 1005,8 hPa 0,0 l/m 0,47 h 0,00 h 149 W/m 22,9 km/h (4 Bft) 95,51 %
19.11.2016 15:00 7,7 C 8,0 C 6,5 C 80 % 0 lf 1006,1 hPa 0,0 l/m 0,00 h 0,00 h 42 W/m 19,0 km/h (3 Bft) 96,16 %
19.11.2016 16:00 7,2 C 7,2 C 5,7 C 80 % 0 lf 1006,1 hPa 0,0 l/m 0,00 h 0,00 h 11 W/m 14,4 km/h (3 Bft) 97,86 %
19.11.2016 17:00 7,0 C 7,0 C 5,3 C 82 % 0 lf 1006,3 hPa 0,0 l/m 0,00 h 0,00 h 5 W/m 15,6 km/h (3 Bft) 92,52 %
19.11.2016 18:00 6,6 C 6,7 C 5,0 C 83 % 0 lf 1006,5 hPa 0,0 l/m 0,00 h 0,00 h 5 W/m 17,7 km/h (3 Bft) 98,01 %
19.11.2016 19:00 6,6 C 6,7 C 5,0 C 82 % 0 lf 1006,5 hPa 0,0 l/m 0,00 h 0,03 h 5 W/m 17,8 km/h (3 Bft) 97,87 %
19.11.2016 20:00 6,2 C 5,9 C 4,2 C 83 % 0 lf 1006,2 hPa 0,0 l/m 0,00 h 0,00 h 5 W/m 13,7 km/h (3 Bft) 94,94 %
19.11.2016 21:00 5,2 C 5,1 C 3,3 C 85 % 0 lf 1005,9 hPa 0,0 l/m 0,00 h 0,00 h 5 W/m 13,2 km/h (3 Bft) 94,16 %
19.11.2016 22:00 4,8 C 4,7 C 3,1 C 87 % 0 lf 1005,0 hPa 0,0 l/m 0,00 h 0,00 h 0 W/m 11,7 km/h (2 Bft) 97,22 %
19.11.2016 23:00 4,6 C 4,9 C 3,3 C 89 % 0 lf 1004,2 hPa 0,0 l/m 0,00 h 0,00 h 0 W/m 16,7 km/h (3 Bft) 96,23 %
20.11.2016 00:00 4,6 C 4,6 C 2,9 C 90 % 0 lf 1003,6 hPa 0,0 l/m 0,00 h 0,00 h 0 W/m 16,1 km/h (3 Bft) 97,24 %
20.11.2016 01:00 4,6 C 4,8 C 3,1 C 90 % 0 lf 1002,8 hPa 0,0 l/m 0,00 h 0,00 h 0 W/m 20,3 km/h (4 Bft) 94,30 %
20.11.2016 02:00 5,1 C 5,6 C 3,9 C 89 % 0 lf 1001,7 hPa 0,0 l/m 0,00 h 0,00 h 0 W/m 25,3 km/h (4 Bft) 95,93 %
20.11.2016 03:00 5,4 C 5,6 C 3,9 C 87 % 0 lf 1000,4 hPa 0,0 l/m 0,00 h 0,00 h 0 W/m 26,9 km/h (4 Bft) 96,37 %
20.11.2016 04:00 5,5 C 5,6 C 4,1 C 87 % 0 lf 998,9 hPa 0,0 l/m 0,00 h 0,00 h 0 W/m 31,1 km/h (5 Bft) 97,02 %
20.11.2016 05:00 5,6 C 5,9 C 4,4 C 87 % 0 lf 997,2 hPa 0,0 l/m 0,00 h 0,00 h 0 W/m 33,6 km/h (5 Bft) 94,66 %
20.11.2016 06:00 6,0 C 6,5 C 4,8 C 82 % 0 lf 995,1 hPa 0,0 l/m 0,00 h 0,00 h 0 W/m 38,3 km/h (5 Bft) 94,39 %
20.11.2016 07:00 6,8 C 7,2 C 5,6 C 77 % 0 lf 993,2 hPa 0,0 l/m 0,00 h 0,00 h 7 W/m 48,7 km/h (6 Bft) 97,86 %
20.11.2016 08:00 7,0 C 6,4 C 5,1 C 78 % 0 lf 992,1 hPa 1,2 l/m 0,00 h 0,57 h 11 W/m 43,2 km/h (6 Bft) 96,08 %
20.11.2016 09:00 6,4 C 5,8 C 4,5 C 89 % 0 lf 991,6 hPa 0,2 l/m 0,00 h 1,00 h 32 W/m 32,2 km/h (5 Bft) 94,16 %
20.11.2016 10:00 9,1 C 9,6 C 7,0 C 86 % 0 lf 991,1 hPa 0,0 l/m 0,17 h 0,73 h 74 W/m 40,2 km/h (6 Bft) 96,22 %
20.11.2016 11:00 11,9 C 13,8 C 10,1 C 77 % 0 lf 990,5 hPa 0,0 l/m 0,67 h 0,00 h 240 W/m 49,3 km/h (6 Bft) 94,26 %
20.11.2016 12:00 13,3 C 15,0 C 12,1 C 75 % 0 lf 990,9 hPa 0,0 l/m 0,67 h 0,00 h 247 W/m 49,5 km/h (6 Bft) 95,44 %
20.11.2016 13:00 14,1 C 15,4 C 12,6 C 72 % 0 lf 991,3 hPa 0,0 l/m 0,40 h 0,00 h 165 W/m 54,9 km/h (7 Bft) 96,73 %
20.11.2016 14:00 14,2 C 14,6 C 12,6 C 72 % 0 lf 992,3 hPa 0,0 l/m 0,10 h 0,00 h 93 W/m 50,0 km/h (6 Bft) 94,80 %
20.11.2016 15:00 13,9 C 14,1 C 12,0 C 74 % 0 lf 993,8 hPa 0,0 l/m 0,07 h 0,00 h 50 W/m 43,6 km/h (6 Bft) 97,21 %
20.11.2016 16:00 13,4 C 13,3 C 11,5 C 75 % 0 lf 995,3 hPa 0,0 l/m 0,00 h 0,00 h 12 W/m 35,6 km/h (5 Bft) 95,65 %
20.11.2016 17:00 12,8 C 12,7 C 10,7 C 78 % 0 lf 996,9 hPa 0,0 l/m 0,00 h 0,00 h 5 W/m 30,3 km/h (5 Bft) 95,23 %
20.11.2016 18:00 12,2 C 12,1 C 10,0 C 82 % 0 lf 998,3 hPa 0,0 l/m 0,00 h 0,00 h 5 W/m 24,3 km/h (4 Bft) 96,22 %
20.11.2016 19:00 11,9 C 12,0 C 10,0 C 84 % 0 lf 998,9 hPa 0,0 l/m 0,00 h 0,00 h 5 W/m 16,9 km/h (3 Bft) 98,43 %
20.11.2016 20:00 12,1 C 12,2 C 10,2 C 86 % 0 lf 999,2 hPa 0,0 l/m 0,00 h 0,00 h 5 W/m 15,5 km/h (3 Bft) 92,73 %
20.11.2016 21:00 11,9 C 11,2 C 9,5 C 89 % 3 lf 999,5 hPa 0,0 l/m 0,00 h 0,40 h 5 W/m 12,2 km/h (2 Bft) 96,79 %
20.11.2016 22:00 11,6 C 11,1 C 9,0 C 91 % 2 lf 999,5 hPa 0,2 l/m 0,00 h 0,43 h 5 W/m 10,1 km/h (2 Bft) 96,86 %
20.11.2016 23:00 11,3 C 11,1 C 8,9 C 91 % 0 lf 999,5 hPa 0,0 l/m 0,00 h 0,00 h 5 W/m 9,3 km/h (2 Bft) 95,59 %
Min-Datum _ 14.11.16 14.11.16 14.11.16 20.11.16 14.11.16 20.11.16 - - - - 18.11.16 20.11.16
_ Min-Zeit 06:58 06:26 06:30 13:42 00:00 11:26 - - - - 06:06 11:40
Minimum _ -0,9 C -1,1 C -2,8 C 71 % 0 lf 990,3 hPa - - - - 0,0 km/h (0 Bft) 25,93 %
Max-Datum _ 20.11.16 17.11.16 20.11.16 15.11.16 15.11.16 14.11.16 18.11.16 14.11.16 14.11.16 17.11.16 20.11.16 14.11.16
_ Max-Zeit 13:20 13:44 13:16 18:08 03:14 10:08 04:36 08:04 17:00 12:34 11:52 00:06
Maximum _ 14,2 C 17,2 C 13,3 C 100 % 15 lf 1033,1 hPa 3,0 l/m 0,03 h 0,03 h 689 W/m 71,1 km/h
S (8 Bft)
100,00 %
Durchschnitt _ 7,8 C 8,0 C 6,3 C 90 % 5 lf 1010,3 hPa #25,4 l/m #13:28 h #34:37 h 53 W/m 21,2 km/h (4 Bft) 95,99 %
© 2016 W. Hausmann